Etusivu
METAR-TAF:

METAR-TAF

Lentoasemat :

Bardufoss, Norja

Leveyspiiri: 69-04N, Pituuspiiri: 018-32E, korkeus merenpinnasta: 7 m

Tämänhetkinen sää

Tämä raportti tehtiin 22 minuuttia sitten, kello 22.50 UTC
Tuuli 1 kn eri suunnista
Lämpötila -5°C
Kosteus 86%
Ilmanpaine 994 hPa
Näkyvyys 10 km tai enemmän

METAR: ENDU 172250Z AUTO VRB01KT 9999 SCT090/// M05/M07 Q0994 RMK WIND 1100FT 12009KT WIND 2200FT 09016KT

Aika: 00:12 (23:12 UTC)

Sääennuste

Ennuste voimassa 17. päivästä klo 18 UTC - 18. päivään klo 18 UTC
Tuuli 5 kn idästä/kaakosta
Näkyvyys 10 km tai enemmän
Muutamia pilviä 3500 ft:n korkeudessa
Hajonneita pilviä 5000 ft:n korkeudessa

TAF: ENDU 1718/1818 12005KT 9999 FEW035 BKN050

Säähavainnot ja -ennusteet yli 4000 lentoasemalta (METAR- ja TAF-raportit).

Käytössä olevat sääasemat on merkitty karttaan keltaisilla ja punaisilla pisteillä.

Aseta hiiri pisteen päälle nähdäksesi sääaseman nimen.

Klikkaa sitten nähdäksesi säähavainnot ja -ennusteet.

Kartan vaihtaminen: klikkaa mustalla rastilla varustettuja vihreitä pisteitä, niin voit zoomata sisään; viivalla varustettua vihreää pistettä, niin voit zoomata ulos tai vihreitä nuolia, niin pääset viereisille kartoille.


METAR-TAF: